Intl Falls, Minnesota
Current Conditions -  °F | °C
As of 9:55 AM on Monday 24 Nov 2014 (Local Time) from KINL Reporting Station
Light Snow Light Snow  
Wind Chill: -1°   Ceiling: 1600
Heat Index: 16°   Visibility: 7mi
Dew Point: 11°   Wind: 21mph
Humidity: 81%   Direction: 350°N
Pressure: 29.5"   Gusts: 29mph
Location:  48.5229°N, 93.3185°W
Report Text: KINL 241555Z AUTO 35018G25KT 7SM -SN OVC016 M09/M12 A2950 RMK AO2 SLP010 P0000 T10891117
Loading
Personal Weather Stations






























Interactive Weather Map New forecast layout! Learn more

10-Day Weather Forecast

Advertisements
Track Severe Weather on mobile